sensor_id;sensor_type;location;lat;lon;timestamp;P1;durP1;ratioP1;P2;durP2;ratioP2
63112;SDS011;49206;48.020;21.378;2023-03-01T00:00:38;19.25;;;10.15;;
63112;SDS011;49206;48.020;21.378;2023-03-01T00:01:40;19.42;;;10.60;;
63112;SDS011;49206;48.020;21.378;2023-03-01T00:02:43;19.52;;;10.68;;
63112;SDS011;49206;48.020;21.378;2023-03-01T00:03:45;20.98;;;11.75;;
63112;SDS011;49206;48.020;21.378;2023-03-01T00:04:48;21.38;;;11.57;;
63112;SDS011;49206;48.020;21.378;2023-03-01T00:05:50;20.48;;;11.40;;
63112;SDS011;49206;48.020;21.378;2023-03-01T00:06:53;17.90;;;10.77;;
63112;SDS011;49206;48.020;21.378;2023-03-01T00:07:55;19.88;;;11.10;;
63112;SDS011;49206;48.020;21.378;2023-03-01T00:08:58;19.30;;;10.60;;
63112;SDS011;49206;48.020;21.378;2023-03-01T00:10:00;17.98;;;10.07;;
63112;SDS011;49206;48.020;21.378;2023-03-01T00:12:17;16.65;;;10.23;;
63112;SDS011;49206;48.020;21.378;2023-03-01T00:13:19;23.20;;;11.23;;
63112;SDS011;49206;48.020;21.378;2023-03-01T00:14:21;21.60;;;10.77;;
63112;SDS011;49206;48.020;21.378;2023-03-01T00:15:25;20.45;;;10.68;;
63112;SDS011;49206;48.020;21.378;2023-03-01T00:16:29;17.10;;;10.68;;
63112;SDS011;49206;48.020;21.378;2023-03-01T00:17:34;18.60;;;9.90;;
63112;SDS011;49206;48.020;21.378;2023-03-01T00:18:36;20.63;;;12.10;;
63112;SDS011;49206;48.020;21.378;2023-03-01T00:19:39;21.88;;;10.98;;
63112;SDS011;49206;48.020;21.378;2023-03-01T00:20:42;17.67;;;10.15;;
63112;SDS011;49206;48.020;21.378;2023-03-01T00:21:52;21.55;;;10.35;;
63112;SDS011;49206;48.020;21.378;2023-03-01T00:22:54;21.48;;;11.35;;
63112;SDS011;49206;48.020;21.378;2023-03-01T00:23:56;21.15;;;10.75;;
63112;SDS011;49206;48.020;21.378;2023-03-01T00:24:59;21.45;;;11.07;;
63112;SDS011;49206;48.020;21.378;2023-03-01T00:26:01;21.10;;;11.32;;
63112;SDS011;49206;48.020;21.378;2023-03-01T00:27:04;18.95;;;10.57;;
63112;SDS011;49206;48.020;21.378;2023-03-01T00:28:07;20.45;;;10.98;;
63112;SDS011;49206;48.020;21.378;2023-03-01T00:29:10;21.10;;;12.20;;
63112;SDS011;49206;48.020;21.378;2023-03-01T00:30:13;19.42;;;11.75;;
63112;SDS011;49206;48.020;21.378;2023-03-01T00:31:20;20.15;;;11.10;;
63112;SDS011;49206;48.020;21.378;2023-03-01T00:32:24;19.45;;;11.18;;
63112;SDS011;49206;48.020;21.378;2023-03-01T00:33:26;19.02;;;9.48;;
63112;SDS011;49206;48.020;21.378;2023-03-01T00:34:28;19.52;;;11.05;;
63112;SDS011;49206;48.020;21.378;2023-03-01T00:35:34;19.58;;;10.32;;
63112;SDS011;49206;48.020;21.378;2023-03-01T00:36:37;18.83;;;10.52;;
63112;SDS011;49206;48.020;21.378;2023-03-01T00:37:40;19.83;;;10.68;;
63112;SDS011;49206;48.020;21.378;2023-03-01T00:38:44;21.73;;;10.75;;
63112;SDS011;49206;48.020;21.378;2023-03-01T00:39:47;19.27;;;10.73;;
63112;SDS011;49206;48.020;21.378;2023-03-01T00:40:50;20.13;;;10.00;;
63112;SDS011;49206;48.020;21.378;2023-03-01T00:41:53;18.00;;;11.20;;
63112;SDS011;49206;48.020;21.378;2023-03-01T00:42:55;19.65;;;11.65;;
63112;SDS011;49206;48.020;21.378;2023-03-01T00:43:58;18.70;;;11.00;;
63112;SDS011;49206;48.020;21.378;2023-03-01T00:45:00;18.88;;;10.82;;
63112;SDS011;49206;48.020;21.378;2023-03-01T00:46:07;19.75;;;11.02;;
63112;SDS011;49206;48.020;21.378;2023-03-01T00:47:12;21.23;;;11.23;;
63112;SDS011;49206;48.020;21.378;2023-03-01T00:49:18;20.20;;;9.65;;
63112;SDS011;49206;48.020;21.378;2023-03-01T00:50:20;17.98;;;10.00;;
63112;SDS011;49206;48.020;21.378;2023-03-01T00:51:25;19.40;;;10.20;;
63112;SDS011;49206;48.020;21.378;2023-03-01T00:52:30;17.85;;;10.50;;
63112;SDS011;49206;48.020;21.378;2023-03-01T00:53:33;19.73;;;11.60;;
63112;SDS011;49206;48.020;21.378;2023-03-01T00:54:36;19.42;;;11.10;;
63112;SDS011;49206;48.020;21.378;2023-03-01T00:55:38;20.25;;;10.70;;
63112;SDS011;49206;48.020;21.378;2023-03-01T00:56:41;19.40;;;10.45;;
63112;SDS011;49206;48.020;21.378;2023-03-01T00:57:43;22.02;;;10.80;;
63112;SDS011;49206;48.020;21.378;2023-03-01T00:58:47;17.67;;;10.88;;
63112;SDS011;49206;48.020;21.378;2023-03-01T00:59:50;22.63;;;11.18;;
63112;SDS011;49206;48.020;21.378;2023-03-01T01:00:54;19.42;;;10.35;;
63112;SDS011;49206;48.020;21.378;2023-03-01T01:01:56;17.55;;;9.98;;
63112;SDS011;49206;48.020;21.378;2023-03-01T01:02:59;20.52;;;10.75;;
63112;SDS011;49206;48.020;21.378;2023-03-01T01:04:03;22.00;;;11.68;;
63112;SDS011;49206;48.020;21.378;2023-03-01T01:05:07;21.65;;;10.70;;
63112;SDS011;49206;48.020;21.378;2023-03-01T01:06:16;19.15;;;10.82;;
63112;SDS011;49206;48.020;21.378;2023-03-01T01:07:25;17.70;;;9.82;;
63112;SDS011;49206;48.020;21.378;2023-03-01T01:08:29;24.27;;;10.85;;
63112;SDS011;49206;48.020;21.378;2023-03-01T01:09:31;21.55;;;11.40;;
63112;SDS011;49206;48.020;21.378;2023-03-01T01:10:34;20.55;;;11.38;;
63112;SDS011;49206;48.020;21.378;2023-03-01T01:11:37;18.30;;;9.70;;
63112;SDS011;49206;48.020;21.378;2023-03-01T01:12:39;21.83;;;11.45;;
63112;SDS011;49206;48.020;21.378;2023-03-01T01:13:43;21.35;;;10.73;;
63112;SDS011;49206;48.020;21.378;2023-03-01T01:14:46;19.30;;;11.55;;
63112;SDS011;49206;48.020;21.378;2023-03-01T01:15:49;18.85;;;11.63;;
63112;SDS011;49206;48.020;21.378;2023-03-01T01:16:51;20.40;;;11.23;;
63112;SDS011;49206;48.020;21.378;2023-03-01T01:17:54;23.65;;;11.23;;
63112;SDS011;49206;48.020;21.378;2023-03-01T01:18:57;19.80;;;10.43;;
63112;SDS011;49206;48.020;21.378;2023-03-01T01:19:59;22.55;;;11.82;;
63112;SDS011;49206;48.020;21.378;2023-03-01T01:21:03;19.70;;;10.80;;
63112;SDS011;49206;48.020;21.378;2023-03-01T01:22:07;21.63;;;11.43;;
63112;SDS011;49206;48.020;21.378;2023-03-01T01:23:09;22.40;;;12.10;;
63112;SDS011;49206;48.020;21.378;2023-03-01T01:24:12;21.35;;;11.23;;
63112;SDS011;49206;48.020;21.378;2023-03-01T01:25:14;20.65;;;10.77;;
63112;SDS011;49206;48.020;21.378;2023-03-01T01:26:18;19.02;;;10.63;;
63112;SDS011;49206;48.020;21.378;2023-03-01T01:27:24;19.23;;;11.13;;
63112;SDS011;49206;48.020;21.378;2023-03-01T01:28:26;20.05;;;11.15;;
63112;SDS011;49206;48.020;21.378;2023-03-01T01:29:29;21.30;;;11.82;;
63112;SDS011;49206;48.020;21.378;2023-03-01T01:30:31;18.67;;;10.13;;
63112;SDS011;49206;48.020;21.378;2023-03-01T01:31:35;20.23;;;11.55;;
63112;SDS011;49206;48.020;21.378;2023-03-01T01:32:39;21.98;;;11.48;;
63112;SDS011;49206;48.020;21.378;2023-03-01T01:33:41;20.63;;;11.25;;
63112;SDS011;49206;48.020;21.378;2023-03-01T01:34:44;21.10;;;11.80;;
63112;SDS011;49206;48.020;21.378;2023-03-01T01:35:48;22.92;;;11.73;;
63112;SDS011;49206;48.020;21.378;2023-03-01T01:36:51;20.13;;;11.05;;
63112;SDS011;49206;48.020;21.378;2023-03-01T01:37:58;19.15;;;10.73;;
63112;SDS011;49206;48.020;21.378;2023-03-01T01:39:01;22.23;;;10.98;;
63112;SDS011;49206;48.020;21.378;2023-03-01T01:40:04;21.50;;;11.48;;
63112;SDS011;49206;48.020;21.378;2023-03-01T01:41:07;22.55;;;10.77;;
63112;SDS011;49206;48.020;21.378;2023-03-01T01:42:16;19.88;;;11.70;;
63112;SDS011;49206;48.020;21.378;2023-03-01T01:43:21;22.70;;;11.95;;
63112;SDS011;49206;48.020;21.378;2023-03-01T01:44:28;19.02;;;10.55;;
63112;SDS011;49206;48.020;21.378;2023-03-01T01:45:35;21.10;;;10.85;;
63112;SDS011;49206;48.020;21.378;2023-03-01T01:46:39;21.40;;;11.05;;
63112;SDS011;49206;48.020;21.378;2023-03-01T01:47:45;22.33;;;11.55;;
63112;SDS011;49206;48.020;21.378;2023-03-01T01:49:36;24.15;;;12.15;;
63112;SDS011;49206;48.020;21.378;2023-03-01T01:50:29;20.30;;;10.90;;
63112;SDS011;49206;48.020;21.378;2023-03-01T01:51:41;22.83;;;11.90;;
63112;SDS011;49206;48.020;21.378;2023-03-01T01:52:45;23.95;;;12.02;;
63112;SDS011;49206;48.020;21.378;2023-03-01T01:53:53;20.05;;;11.05;;
63112;SDS011;49206;48.020;21.378;2023-03-01T01:56:10;22.48;;;11.90;;
63112;SDS011;49206;48.020;21.378;2023-03-01T01:57:19;21.48;;;11.70;;
63112;SDS011;49206;48.020;21.378;2023-03-01T01:58:30;23.35;;;11.27;;
63112;SDS011;49206;48.020;21.378;2023-03-01T01:59:33;20.15;;;10.35;;
63112;SDS011;49206;48.020;21.378;2023-03-01T02:00:36;22.08;;;11.20;;
63112;SDS011;49206;48.020;21.378;2023-03-01T02:01:40;22.17;;;11.50;;
63112;SDS011;49206;48.020;21.378;2023-03-01T02:02:43;19.60;;;11.10;;
63112;SDS011;49206;48.020;21.378;2023-03-01T02:03:48;24.20;;;11.52;;
63112;SDS011;49206;48.020;21.378;2023-03-01T02:04:52;19.00;;;10.93;;
63112;SDS011;49206;48.020;21.378;2023-03-01T02:06:19;18.00;;;10.23;;
63112;SDS011;49206;48.020;21.378;2023-03-01T02:07:31;22.33;;;11.05;;
63112;SDS011;49206;48.020;21.378;2023-03-01T02:08:35;19.02;;;11.07;;
63112;SDS011;49206;48.020;21.378;2023-03-01T02:09:46;21.85;;;11.18;;
63112;SDS011;49206;48.020;21.378;2023-03-01T02:10:52;20.95;;;11.80;;
63112;SDS011;49206;48.020;21.378;2023-03-01T02:11:58;20.20;;;10.57;;
63112;SDS011;49206;48.020;21.378;2023-03-01T02:13:01;22.13;;;11.32;;
63112;SDS011;49206;48.020;21.378;2023-03-01T02:14:05;21.42;;;11.18;;
63112;SDS011;49206;48.020;21.378;2023-03-01T02:15:07;21.27;;;11.68;;
63112;SDS011;49206;48.020;21.378;2023-03-01T02:16:11;20.35;;;10.88;;
63112;SDS011;49206;48.020;21.378;2023-03-01T02:17:17;23.48;;;11.57;;
63112;SDS011;49206;48.020;21.378;2023-03-01T02:18:21;21.00;;;11.02;;
63112;SDS011;49206;48.020;21.378;2023-03-01T02:22:32;24.30;;;11.82;;
63112;SDS011;49206;48.020;21.378;2023-03-01T02:23:33;21.52;;;11.48;;
63112;SDS011;49206;48.020;21.378;2023-03-01T02:26:18;20.35;;;11.43;;
63112;SDS011;49206;48.020;21.378;2023-03-01T02:27:22;20.50;;;10.70;;
63112;SDS011;49206;48.020;21.378;2023-03-01T02:28:35;21.00;;;11.18;;
63112;SDS011;49206;48.020;21.378;2023-03-01T02:29:40;20.38;;;11.65;;
63112;SDS011;49206;48.020;21.378;2023-03-01T02:30:48;20.65;;;11.43;;
63112;SDS011;49206;48.020;21.378;2023-03-01T02:32:11;23.08;;;11.05;;
63112;SDS011;49206;48.020;21.378;2023-03-01T02:33:15;25.30;;;11.80;;
63112;SDS011;49206;48.020;21.378;2023-03-01T02:34:18;19.85;;;11.15;;
63112;SDS011;49206;48.020;21.378;2023-03-01T02:35:24;20.15;;;11.27;;
63112;SDS011;49206;48.020;21.378;2023-03-01T02:36:31;22.52;;;12.55;;
63112;SDS011;49206;48.020;21.378;2023-03-01T02:37:37;23.05;;;12.02;;
63112;SDS011;49206;48.020;21.378;2023-03-01T02:38:43;20.38;;;11.13;;
63112;SDS011;49206;48.020;21.378;2023-03-01T02:39:46;22.08;;;11.48;;
63112;SDS011;49206;48.020;21.378;2023-03-01T02:40:52;23.08;;;11.15;;
63112;SDS011;49206;48.020;21.378;2023-03-01T02:41:57;20.33;;;11.25;;
63112;SDS011;49206;48.020;21.378;2023-03-01T02:43:01;20.00;;;11.02;;
63112;SDS011;49206;48.020;21.378;2023-03-01T02:44:06;21.70;;;12.80;;
63112;SDS011;49206;48.020;21.378;2023-03-01T02:45:09;23.02;;;11.88;;
63112;SDS011;49206;48.020;21.378;2023-03-01T02:46:22;22.70;;;12.40;;
63112;SDS011;49206;48.020;21.378;2023-03-01T02:47:27;33.58;;;17.05;;
63112;SDS011;49206;48.020;21.378;2023-03-01T02:48:38;32.28;;;16.40;;
63112;SDS011;49206;48.020;21.378;2023-03-01T02:49:43;36.40;;;16.48;;
63112;SDS011;49206;48.020;21.378;2023-03-01T02:56:17;43.33;;;19.15;;
63112;SDS011;49206;48.020;21.378;2023-03-01T02:57:20;38.22;;;19.00;;
63112;SDS011;49206;48.020;21.378;2023-03-01T02:58:25;33.03;;;16.70;;
63112;SDS011;49206;48.020;21.378;2023-03-01T02:59:29;25.45;;;12.68;;
63112;SDS011;49206;48.020;21.378;2023-03-01T03:00:38;23.33;;;12.30;;
63112;SDS011;49206;48.020;21.378;2023-03-01T03:01:49;22.38;;;11.50;;
63112;SDS011;49206;48.020;21.378;2023-03-01T03:02:52;22.23;;;10.82;;
63112;SDS011;49206;48.020;21.378;2023-03-01T03:03:59;21.80;;;11.70;;
63112;SDS011;49206;48.020;21.378;2023-03-01T03:05:06;18.15;;;11.38;;
63112;SDS011;49206;48.020;21.378;2023-03-01T03:06:12;21.70;;;11.35;;
63112;SDS011;49206;48.020;21.378;2023-03-01T03:07:15;20.00;;;11.65;;
63112;SDS011;49206;48.020;21.378;2023-03-01T03:08:22;19.85;;;10.88;;
63112;SDS011;49206;48.020;21.378;2023-03-01T03:09:26;22.48;;;11.70;;
63112;SDS011;49206;48.020;21.378;2023-03-01T03:10:32;22.17;;;11.50;;
63112;SDS011;49206;48.020;21.378;2023-03-01T03:11:37;20.80;;;11.80;;
63112;SDS011;49206;48.020;21.378;2023-03-01T03:12:41;22.65;;;12.20;;
63112;SDS011;49206;48.020;21.378;2023-03-01T03:13:44;20.75;;;11.73;;
63112;SDS011;49206;48.020;21.378;2023-03-01T03:14:51;19.40;;;10.70;;
63112;SDS011;49206;48.020;21.378;2023-03-01T03:15:55;20.88;;;12.20;;
63112;SDS011;49206;48.020;21.378;2023-03-01T03:16:58;20.88;;;11.43;;
63112;SDS011;49206;48.020;21.378;2023-03-01T03:18:01;19.05;;;10.95;;
63112;SDS011;49206;48.020;21.378;2023-03-01T03:19:06;24.13;;;11.43;;
63112;SDS011;49206;48.020;21.378;2023-03-01T03:20:09;21.83;;;11.05;;
63112;SDS011;49206;48.020;21.378;2023-03-01T03:21:14;21.60;;;11.50;;
63112;SDS011;49206;48.020;21.378;2023-03-01T03:22:18;22.95;;;11.57;;
63112;SDS011;49206;48.020;21.378;2023-03-01T03:23:21;20.77;;;12.07;;
63112;SDS011;49206;48.020;21.378;2023-03-01T03:24:24;20.42;;;12.13;;
63112;SDS011;49206;48.020;21.378;2023-03-01T03:25:27;22.13;;;12.85;;
63112;SDS011;49206;48.020;21.378;2023-03-01T03:26:30;22.33;;;11.30;;
63112;SDS011;49206;48.020;21.378;2023-03-01T03:27:33;23.10;;;11.77;;
63112;SDS011;49206;48.020;21.378;2023-03-01T03:28:38;24.67;;;11.88;;
63112;SDS011;49206;48.020;21.378;2023-03-01T03:29:41;21.90;;;11.15;;
63112;SDS011;49206;48.020;21.378;2023-03-01T03:30:44;24.70;;;14.57;;
63112;SDS011;49206;48.020;21.378;2023-03-01T03:31:46;25.13;;;13.98;;
63112;SDS011;49206;48.020;21.378;2023-03-01T03:32:48;35.30;;;18.20;;
63112;SDS011;49206;48.020;21.378;2023-03-01T03:33:54;29.85;;;17.25;;
63112;SDS011;49206;48.020;21.378;2023-03-01T03:34:57;33.63;;;17.35;;
63112;SDS011;49206;48.020;21.378;2023-03-01T03:35:59;30.90;;;16.40;;
63112;SDS011;49206;48.020;21.378;2023-03-01T03:37:01;22.95;;;13.60;;
63112;SDS011;49206;48.020;21.378;2023-03-01T03:38:05;27.98;;;13.65;;
63112;SDS011;49206;48.020;21.378;2023-03-01T03:39:11;20.05;;;11.23;;
63112;SDS011;49206;48.020;21.378;2023-03-01T03:40:13;22.75;;;11.85;;
63112;SDS011;49206;48.020;21.378;2023-03-01T03:41:17;23.42;;;11.77;;
63112;SDS011;49206;48.020;21.378;2023-03-01T03:42:21;22.55;;;12.43;;
63112;SDS011;49206;48.020;21.378;2023-03-01T03:43:24;20.73;;;11.65;;
63112;SDS011;49206;48.020;21.378;2023-03-01T03:44:26;20.65;;;11.35;;
63112;SDS011;49206;48.020;21.378;2023-03-01T03:45:28;23.67;;;11.48;;
63112;SDS011;49206;48.020;21.378;2023-03-01T03:46:31;21.02;;;11.10;;
63112;SDS011;49206;48.020;21.378;2023-03-01T03:47:35;19.35;;;10.80;;
63112;SDS011;49206;48.020;21.378;2023-03-01T03:48:44;20.90;;;10.48;;
63112;SDS011;49206;48.020;21.378;2023-03-01T03:49:48;22.60;;;11.38;;
63112;SDS011;49206;48.020;21.378;2023-03-01T03:50:51;20.17;;;10.63;;
63112;SDS011;49206;48.020;21.378;2023-03-01T03:51:55;19.35;;;10.32;;
63112;SDS011;49206;48.020;21.378;2023-03-01T03:53:02;16.10;;;9.90;;
63112;SDS011;49206;48.020;21.378;2023-03-01T03:54:07;19.33;;;10.90;;
63112;SDS011;49206;48.020;21.378;2023-03-01T03:55:10;21.02;;;10.82;;
63112;SDS011;49206;48.020;21.378;2023-03-01T03:56:13;20.33;;;11.88;;
63112;SDS011;49206;48.020;21.378;2023-03-01T03:57:16;20.98;;;10.63;;
63112;SDS011;49206;48.020;21.378;2023-03-01T03:58:19;20.23;;;10.35;;
63112;SDS011;49206;48.020;21.378;2023-03-01T03:59:25;22.00;;;10.80;;
63112;SDS011;49206;48.020;21.378;2023-03-01T04:00:27;20.60;;;10.82;;
63112;SDS011;49206;48.020;21.378;2023-03-01T04:01:30;18.70;;;9.82;;
63112;SDS011;49206;48.020;21.378;2023-03-01T04:02:32;18.35;;;9.90;;
63112;SDS011;49206;48.020;21.378;2023-03-01T04:03:35;20.33;;;11.65;;
63112;SDS011;49206;48.020;21.378;2023-03-01T04:04:37;22.38;;;11.70;;
63112;SDS011;49206;48.020;21.378;2023-03-01T04:05:40;20.38;;;11.68;;
63112;SDS011;49206;48.020;21.378;2023-03-01T04:06:42;21.05;;;11.18;;
63112;SDS011;49206;48.020;21.378;2023-03-01T04:07:45;19.33;;;10.82;;
63112;SDS011;49206;48.020;21.378;2023-03-01T04:08:47;22.63;;;11.85;;
63112;SDS011;49206;48.020;21.378;2023-03-01T04:09:52;23.08;;;11.77;;
63112;SDS011;49206;48.020;21.378;2023-03-01T04:10:59;22.42;;;11.65;;
63112;SDS011;49206;48.020;21.378;2023-03-01T04:12:22;22.05;;;10.85;;
63112;SDS011;49206;48.020;21.378;2023-03-01T04:13:25;20.48;;;11.93;;
63112;SDS011;49206;48.020;21.378;2023-03-01T04:14:27;19.83;;;11.75;;
63112;SDS011;49206;48.020;21.378;2023-03-01T04:15:30;18.70;;;11.60;;
63112;SDS011;49206;48.020;21.378;2023-03-01T04:16:34;23.70;;;11.95;;
63112;SDS011;49206;48.020;21.378;2023-03-01T04:17:37;20.50;;;11.48;;
63112;SDS011;49206;48.020;21.378;2023-03-01T04:18:40;25.75;;;11.50;;
63112;SDS011;49206;48.020;21.378;2023-03-01T04:19:42;18.52;;;10.95;;
63112;SDS011;49206;48.020;21.378;2023-03-01T04:20:45;21.63;;;11.55;;
63112;SDS011;49206;48.020;21.378;2023-03-01T04:21:48;22.75;;;12.15;;
63112;SDS011;49206;48.020;21.378;2023-03-01T04:23:00;18.55;;;10.68;;
63112;SDS011;49206;48.020;21.378;2023-03-01T04:24:12;24.27;;;12.57;;
63112;SDS011;49206;48.020;21.378;2023-03-01T04:25:15;20.77;;;11.38;;
63112;SDS011;49206;48.020;21.378;2023-03-01T04:26:18;24.30;;;11.65;;
63112;SDS011;49206;48.020;21.378;2023-03-01T04:28:32;22.55;;;10.93;;
63112;SDS011;49206;48.020;21.378;2023-03-01T04:29:37;22.98;;;10.38;;
63112;SDS011;49206;48.020;21.378;2023-03-01T04:30:41;20.65;;;10.75;;
63112;SDS011;49206;48.020;21.378;2023-03-01T04:31:43;22.77;;;11.05;;
63112;SDS011;49206;48.020;21.378;2023-03-01T04:32:45;22.20;;;11.60;;
63112;SDS011;49206;48.020;21.378;2023-03-01T04:33:49;20.27;;;10.93;;
63112;SDS011;49206;48.020;21.378;2023-03-01T04:34:54;22.98;;;10.45;;
63112;SDS011;49206;48.020;21.378;2023-03-01T04:35:56;21.20;;;11.75;;
63112;SDS011;49206;48.020;21.378;2023-03-01T04:36:59;23.75;;;11.77;;
63112;SDS011;49206;48.020;21.378;2023-03-01T04:38:02;22.10;;;12.65;;
63112;SDS011;49206;48.020;21.378;2023-03-01T04:39:07;21.02;;;11.10;;
63112;SDS011;49206;48.020;21.378;2023-03-01T04:40:14;22.20;;;11.93;;
63112;SDS011;49206;48.020;21.378;2023-03-01T04:41:19;22.60;;;11.40;;
63112;SDS011;49206;48.020;21.378;2023-03-01T04:42:24;21.65;;;12.60;;
63112;SDS011;49206;48.020;21.378;2023-03-01T04:43:26;23.05;;;11.75;;
63112;SDS011;49206;48.020;21.378;2023-03-01T04:44:29;21.83;;;11.50;;
63112;SDS011;49206;48.020;21.378;2023-03-01T04:45:32;22.75;;;12.30;;
63112;SDS011;49206;48.020;21.378;2023-03-01T04:46:36;24.52;;;12.18;;
63112;SDS011;49206;48.020;21.378;2023-03-01T04:47:39;25.40;;;13.48;;
63112;SDS011;49206;48.020;21.378;2023-03-01T04:48:45;19.58;;;11.23;;
63112;SDS011;49206;48.020;21.378;2023-03-01T04:49:51;23.55;;;12.05;;
63112;SDS011;49206;48.020;21.378;2023-03-01T04:50:54;23.58;;;13.00;;
63112;SDS011;49206;48.020;21.378;2023-03-01T04:51:56;27.42;;;11.95;;
63112;SDS011;49206;48.020;21.378;2023-03-01T04:53:05;21.38;;;11.63;;
63112;SDS011;49206;48.020;21.378;2023-03-01T04:54:07;23.13;;;12.13;;
63112;SDS011;49206;48.020;21.378;2023-03-01T04:55:10;22.92;;;11.45;;
63112;SDS011;49206;48.020;21.378;2023-03-01T04:56:13;23.45;;;11.50;;
63112;SDS011;49206;48.020;21.378;2023-03-01T04:57:16;23.52;;;12.15;;
63112;SDS011;49206;48.020;21.378;2023-03-01T04:58:18;25.38;;;11.25;;
63112;SDS011;49206;48.020;21.378;2023-03-01T04:59:20;21.77;;;12.07;;
63112;SDS011;49206;48.020;21.378;2023-03-01T05:00:26;20.85;;;11.30;;
63112;SDS011;49206;48.020;21.378;2023-03-01T05:01:29;21.45;;;10.57;;
63112;SDS011;49206;48.020;21.378;2023-03-01T05:02:31;19.10;;;11.07;;
63112;SDS011;49206;48.020;21.378;2023-03-01T05:03:33;16.42;;;10.10;;
63112;SDS011;49206;48.020;21.378;2023-03-01T05:04:36;19.40;;;10.60;;
63112;SDS011;49206;48.020;21.378;2023-03-01T05:05:38;20.80;;;10.65;;
63112;SDS011;49206;48.020;21.378;2023-03-01T05:06:41;20.50;;;10.68;;
63112;SDS011;49206;48.020;21.378;2023-03-01T05:07:44;21.20;;;10.93;;
63112;SDS011;49206;48.020;21.378;2023-03-01T05:08:49;21.88;;;11.23;;
63112;SDS011;49206;48.020;21.378;2023-03-01T05:09:51;18.77;;;11.25;;
63112;SDS011;49206;48.020;21.378;2023-03-01T05:11:58;19.23;;;10.75;;
63112;SDS011;49206;48.020;21.378;2023-03-01T05:13:00;20.00;;;11.68;;
63112;SDS011;49206;48.020;21.378;2023-03-01T05:14:06;17.92;;;11.48;;
63112;SDS011;49206;48.020;21.378;2023-03-01T05:15:10;25.02;;;12.52;;
63112;SDS011;49206;48.020;21.378;2023-03-01T05:16:12;20.38;;;11.10;;
63112;SDS011;49206;48.020;21.378;2023-03-01T05:17:15;25.38;;;11.85;;
63112;SDS011;49206;48.020;21.378;2023-03-01T05:18:18;20.38;;;10.70;;
63112;SDS011;49206;48.020;21.378;2023-03-01T05:19:21;20.08;;;10.82;;
63112;SDS011;49206;48.020;21.378;2023-03-01T05:20:28;22.88;;;11.95;;
63112;SDS011;49206;48.020;21.378;2023-03-01T05:21:32;24.25;;;11.73;;
63112;SDS011;49206;48.020;21.378;2023-03-01T05:22:35;21.10;;;11.77;;
63112;SDS011;49206;48.020;21.378;2023-03-01T05:23:38;21.25;;;10.98;;
63112;SDS011;49206;48.020;21.378;2023-03-01T05:24:41;22.30;;;11.32;;
63112;SDS011;49206;48.020;21.378;2023-03-01T05:25:43;24.10;;;12.18;;
63112;SDS011;49206;48.020;21.378;2023-03-01T05:26:46;19.02;;;11.13;;
63112;SDS011;49206;48.020;21.378;2023-03-01T05:27:50;19.83;;;10.88;;
63112;SDS011;49206;48.020;21.378;2023-03-01T05:28:52;19.70;;;10.50;;
63112;SDS011;49206;48.020;21.378;2023-03-01T05:30:02;20.70;;;10.40;;
63112;SDS011;49206;48.020;21.378;2023-03-01T05:31:16;27.05;;;11.93;;
63112;SDS011;49206;48.020;21.378;2023-03-01T05:32:19;27.05;;;11.65;;
63112;SDS011;49206;48.020;21.378;2023-03-01T05:33:21;21.92;;;12.00;;
63112;SDS011;49206;48.020;21.378;2023-03-01T05:34:25;20.30;;;12.35;;
63112;SDS011;49206;48.020;21.378;2023-03-01T05:35:29;24.42;;;13.63;;
63112;SDS011;49206;48.020;21.378;2023-03-01T05:36:34;27.02;;;12.30;;
63112;SDS011;49206;48.020;21.378;2023-03-01T05:37:37;27.52;;;12.95;;
63112;SDS011;49206;48.020;21.378;2023-03-01T05:38:40;25.00;;;12.88;;
63112;SDS011;49206;48.020;21.378;2023-03-01T05:39:43;21.88;;;12.20;;
63112;SDS011;49206;48.020;21.378;2023-03-01T05:40:46;23.02;;;13.15;;
63112;SDS011;49206;48.020;21.378;2023-03-01T05:41:53;20.95;;;13.45;;
63112;SDS011;49206;48.020;21.378;2023-03-01T05:42:57;27.30;;;13.85;;
63112;SDS011;49206;48.020;21.378;2023-03-01T05:43:59;26.52;;;13.45;;
63112;SDS011;49206;48.020;21.378;2023-03-01T05:45:02;21.20;;;13.00;;
63112;SDS011;49206;48.020;21.378;2023-03-01T05:46:04;24.60;;;14.43;;
63112;SDS011;49206;48.020;21.378;2023-03-01T05:47:07;25.77;;;14.90;;
63112;SDS011;49206;48.020;21.378;2023-03-01T05:48:10;28.73;;;15.20;;
63112;SDS011;49206;48.020;21.378;2023-03-01T05:49:13;26.95;;;14.88;;
63112;SDS011;49206;48.020;21.378;2023-03-01T05:51:23;27.85;;;15.70;;
63112;SDS011;49206;48.020;21.378;2023-03-01T05:52:26;26.13;;;14.70;;
63112;SDS011;49206;48.020;21.378;2023-03-01T05:53:28;24.55;;;14.80;;
63112;SDS011;49206;48.020;21.378;2023-03-01T05:54:31;26.90;;;14.85;;
63112;SDS011;49206;48.020;21.378;2023-03-01T05:55:35;32.00;;;14.80;;
63112;SDS011;49206;48.020;21.378;2023-03-01T05:56:39;27.27;;;15.35;;
63112;SDS011;49206;48.020;21.378;2023-03-01T05:57:41;23.83;;;13.38;;
63112;SDS011;49206;48.020;21.378;2023-03-01T05:58:44;31.92;;;13.68;;
63112;SDS011;49206;48.020;21.378;2023-03-01T05:59:46;27.50;;;14.98;;
63112;SDS011;49206;48.020;21.378;2023-03-01T06:00:49;28.55;;;14.52;;
63112;SDS011;49206;48.020;21.378;2023-03-01T06:01:54;31.48;;;15.50;;
63112;SDS011;49206;48.020;21.378;2023-03-01T06:02:57;31.35;;;15.68;;
63112;SDS011;49206;48.020;21.378;2023-03-01T06:04:00;32.08;;;15.95;;
63112;SDS011;49206;48.020;21.378;2023-03-01T06:05:04;36.08;;;16.80;;
63112;SDS011;49206;48.020;21.378;2023-03-01T06:06:08;40.30;;;16.80;;
63112;SDS011;49206;48.020;21.378;2023-03-01T06:07:11;31.17;;;13.68;;
63112;SDS011;49206;48.020;21.378;2023-03-01T06:08:14;34.78;;;14.32;;
63112;SDS011;49206;48.020;21.378;2023-03-01T06:09:16;30.63;;;14.00;;
63112;SDS011;49206;48.020;21.378;2023-03-01T06:10:19;32.95;;;15.63;;
63112;SDS011;49206;48.020;21.378;2023-03-01T06:11:23;35.10;;;15.93;;
63112;SDS011;49206;48.020;21.378;2023-03-01T06:12:25;32.38;;;14.57;;
63112;SDS011;49206;48.020;21.378;2023-03-01T06:13:28;30.55;;;14.63;;
63112;SDS011;49206;48.020;21.378;2023-03-01T06:14:31;34.33;;;15.90;;
63112;SDS011;49206;48.020;21.378;2023-03-01T06:15:34;25.30;;;14.00;;
63112;SDS011;49206;48.020;21.378;2023-03-01T06:16:36;25.90;;;13.20;;
63112;SDS011;49206;48.020;21.378;2023-03-01T06:17:39;25.98;;;14.02;;
63112;SDS011;49206;48.020;21.378;2023-03-01T06:18:45;28.60;;;14.57;;
63112;SDS011;49206;48.020;21.378;2023-03-01T06:21:25;25.85;;;12.10;;
63112;SDS011;49206;48.020;21.378;2023-03-01T06:22:28;19.55;;;11.95;;
63112;SDS011;49206;48.020;21.378;2023-03-01T06:23:31;22.67;;;12.60;;
63112;SDS011;49206;48.020;21.378;2023-03-01T06:24:34;19.67;;;11.93;;
63112;SDS011;49206;48.020;21.378;2023-03-01T06:25:36;20.85;;;11.15;;
63112;SDS011;49206;48.020;21.378;2023-03-01T06:26:39;21.15;;;11.75;;
63112;SDS011;49206;48.020;21.378;2023-03-01T06:27:42;20.67;;;10.82;;
63112;SDS011;49206;48.020;21.378;2023-03-01T06:29:48;17.75;;;9.77;;